sensor_id;sensor_type;location;lat;lon;timestamp;P1;durP1;ratioP1;P2;durP2;ratioP2
29168;SDS011;16219;42.864;23.360;2022-10-22T00:01:06;11.32;;;4.80;;
29168;SDS011;16219;42.864;23.360;2022-10-22T00:03:33;6.80;;;4.75;;
29168;SDS011;16219;42.864;23.360;2022-10-22T00:06:01;5.95;;;4.32;;
29168;SDS011;16219;42.864;23.360;2022-10-22T00:08:28;6.65;;;4.72;;
29168;SDS011;16219;42.864;23.360;2022-10-22T00:10:55;6.22;;;4.65;;
29168;SDS011;16219;42.864;23.360;2022-10-22T00:13:24;4.95;;;4.38;;
29168;SDS011;16219;42.864;23.360;2022-10-22T00:15:51;7.47;;;5.03;;
29168;SDS011;16219;42.864;23.360;2022-10-22T00:18:18;6.60;;;5.32;;
29168;SDS011;16219;42.864;23.360;2022-10-22T00:20:45;7.50;;;5.47;;
29168;SDS011;16219;42.864;23.360;2022-10-22T00:23:12;8.48;;;5.25;;
29168;SDS011;16219;42.864;23.360;2022-10-22T00:25:39;5.82;;;4.78;;
29168;SDS011;16219;42.864;23.360;2022-10-22T00:28:06;10.38;;;4.95;;
29168;SDS011;16219;42.864;23.360;2022-10-22T00:30:35;8.60;;;5.78;;
29168;SDS011;16219;42.864;23.360;2022-10-22T00:33:02;6.53;;;5.00;;
29168;SDS011;16219;42.864;23.360;2022-10-22T00:35:29;8.27;;;6.20;;
29168;SDS011;16219;42.864;23.360;2022-10-22T00:37:56;7.40;;;3.88;;
29168;SDS011;16219;42.864;23.360;2022-10-22T00:40:23;5.85;;;5.05;;
29168;SDS011;16219;42.864;23.360;2022-10-22T00:42:50;8.45;;;4.68;;
29168;SDS011;16219;42.864;23.360;2022-10-22T00:45:19;9.60;;;5.00;;
29168;SDS011;16219;42.864;23.360;2022-10-22T00:47:50;5.32;;;4.70;;
29168;SDS011;16219;42.864;23.360;2022-10-22T00:50:22;7.95;;;4.38;;
29168;SDS011;16219;42.864;23.360;2022-10-22T00:52:52;7.57;;;4.70;;
29168;SDS011;16219;42.864;23.360;2022-10-22T00:55:20;7.47;;;4.97;;
29168;SDS011;16219;42.864;23.360;2022-10-22T00:57:49;6.65;;;4.82;;
29168;SDS011;16219;42.864;23.360;2022-10-22T01:00:18;5.90;;;3.78;;
29168;SDS011;16219;42.864;23.360;2022-10-22T01:02:45;7.10;;;4.22;;
29168;SDS011;16219;42.864;23.360;2022-10-22T01:05:15;5.78;;;4.40;;
29168;SDS011;16219;42.864;23.360;2022-10-22T01:07:44;5.78;;;4.03;;
29168;SDS011;16219;42.864;23.360;2022-10-22T01:10:21;3.88;;;3.53;;
29168;SDS011;16219;42.864;23.360;2022-10-22T01:12:59;4.40;;;3.42;;
29168;SDS011;16219;42.864;23.360;2022-10-22T01:15:36;8.75;;;4.30;;
29168;SDS011;16219;42.864;23.360;2022-10-22T01:20:45;16.38;;;5.43;;
29168;SDS011;16219;42.864;23.360;2022-10-22T01:23:23;8.45;;;4.22;;
29168;SDS011;16219;42.864;23.360;2022-10-22T01:26:09;7.88;;;5.15;;
29168;SDS011;16219;42.864;23.360;2022-10-22T01:28:51;9.32;;;5.45;;
29168;SDS011;16219;42.864;23.360;2022-10-22T01:31:24;7.28;;;4.43;;
29168;SDS011;16219;42.864;23.360;2022-10-22T01:33:56;8.27;;;5.07;;
29168;SDS011;16219;42.864;23.360;2022-10-22T01:36:24;5.07;;;4.57;;
29168;SDS011;16219;42.864;23.360;2022-10-22T01:38:54;12.77;;;6.47;;
29168;SDS011;16219;42.864;23.360;2022-10-22T01:41:22;8.02;;;5.82;;
29168;SDS011;16219;42.864;23.360;2022-10-22T01:43:50;6.18;;;5.43;;
29168;SDS011;16219;42.864;23.360;2022-10-22T01:46:18;11.65;;;5.15;;
29168;SDS011;16219;42.864;23.360;2022-10-22T01:48:52;11.77;;;7.07;;
29168;SDS011;16219;42.864;23.360;2022-10-22T01:51:37;7.65;;;5.18;;
29168;SDS011;16219;42.864;23.360;2022-10-22T01:54:20;5.72;;;4.70;;
29168;SDS011;16219;42.864;23.360;2022-10-22T01:56:58;8.27;;;5.13;;
29168;SDS011;16219;42.864;23.360;2022-10-22T01:59:38;4.20;;;3.80;;
29168;SDS011;16219;42.864;23.360;2022-10-22T02:02:16;13.43;;;3.92;;
29168;SDS011;16219;42.864;23.360;2022-10-22T02:04:52;4.78;;;4.32;;
29168;SDS011;16219;42.864;23.360;2022-10-22T02:07:24;8.10;;;4.32;;
29168;SDS011;16219;42.864;23.360;2022-10-22T02:09:56;6.03;;;4.97;;
29168;SDS011;16219;42.864;23.360;2022-10-22T02:12:25;5.15;;;4.30;;
29168;SDS011;16219;42.864;23.360;2022-10-22T02:14:56;7.13;;;4.43;;
29168;SDS011;16219;42.864;23.360;2022-10-22T02:17:24;6.53;;;5.32;;
29168;SDS011;16219;42.864;23.360;2022-10-22T02:19:55;5.63;;;3.55;;
29168;SDS011;16219;42.864;23.360;2022-10-22T02:22:25;6.28;;;4.28;;
29168;SDS011;16219;42.864;23.360;2022-10-22T02:24:53;4.40;;;3.83;;
29168;SDS011;16219;42.864;23.360;2022-10-22T02:27:22;5.38;;;4.25;;
29168;SDS011;16219;42.864;23.360;2022-10-22T02:29:57;4.82;;;3.55;;
29168;SDS011;16219;42.864;23.360;2022-10-22T02:32:30;4.43;;;3.90;;
29168;SDS011;16219;42.864;23.360;2022-10-22T02:35:00;5.55;;;4.45;;
29168;SDS011;16219;42.864;23.360;2022-10-22T02:37:29;6.32;;;3.78;;
29168;SDS011;16219;42.864;23.360;2022-10-22T02:39:56;4.47;;;3.80;;
29168;SDS011;16219;42.864;23.360;2022-10-22T02:42:23;5.25;;;4.18;;
29168;SDS011;16219;42.864;23.360;2022-10-22T02:44:51;5.57;;;4.03;;
29168;SDS011;16219;42.864;23.360;2022-10-22T02:47:20;14.53;;;4.50;;
29168;SDS011;16219;42.864;23.360;2022-10-22T02:49:47;6.25;;;4.35;;
29168;SDS011;16219;42.864;23.360;2022-10-22T02:52:14;4.38;;;3.33;;
29168;SDS011;16219;42.864;23.360;2022-10-22T02:54:41;5.47;;;4.82;;
29168;SDS011;16219;42.864;23.360;2022-10-22T02:57:08;10.90;;;5.95;;
29168;SDS011;16219;42.864;23.360;2022-10-22T02:59:35;8.52;;;5.35;;
29168;SDS011;16219;42.864;23.360;2022-10-22T03:02:02;7.00;;;4.53;;
29168;SDS011;16219;42.864;23.360;2022-10-22T03:04:31;7.20;;;4.95;;
29168;SDS011;16219;42.864;23.360;2022-10-22T03:06:58;7.90;;;5.35;;
29168;SDS011;16219;42.864;23.360;2022-10-22T03:09:25;7.45;;;4.22;;
29168;SDS011;16219;42.864;23.360;2022-10-22T03:11:52;6.72;;;4.95;;
29168;SDS011;16219;42.864;23.360;2022-10-22T03:14:19;5.15;;;4.70;;
29168;SDS011;16219;42.864;23.360;2022-10-22T03:16:47;5.43;;;4.88;;
29168;SDS011;16219;42.864;23.360;2022-10-22T03:19:14;5.50;;;4.90;;
29168;SDS011;16219;42.864;23.360;2022-10-22T03:21:43;8.63;;;5.85;;
29168;SDS011;16219;42.864;23.360;2022-10-22T03:24:15;9.88;;;4.82;;
29168;SDS011;16219;42.864;23.360;2022-10-22T03:26:44;7.22;;;4.60;;
29168;SDS011;16219;42.864;23.360;2022-10-22T03:29:15;8.55;;;4.75;;
29168;SDS011;16219;42.864;23.360;2022-10-22T03:31:43;7.88;;;4.30;;
29168;SDS011;16219;42.864;23.360;2022-10-22T03:34:10;5.07;;;4.57;;
29168;SDS011;16219;42.864;23.360;2022-10-22T03:36:37;5.20;;;3.85;;
29168;SDS011;16219;42.864;23.360;2022-10-22T03:39:07;3.88;;;3.30;;
29168;SDS011;16219;42.864;23.360;2022-10-22T03:41:35;4.72;;;3.83;;
29168;SDS011;16219;42.864;23.360;2022-10-22T03:44:03;6.75;;;3.80;;
29168;SDS011;16219;42.864;23.360;2022-10-22T03:46:31;5.60;;;4.55;;
29168;SDS011;16219;42.864;23.360;2022-10-22T03:48:58;19.73;;;4.78;;
29168;SDS011;16219;42.864;23.360;2022-10-22T03:51:25;6.35;;;4.45;;
29168;SDS011;16219;42.864;23.360;2022-10-22T03:53:53;6.28;;;4.13;;
29168;SDS011;16219;42.864;23.360;2022-10-22T03:56:21;5.07;;;4.15;;
29168;SDS011;16219;42.864;23.360;2022-10-22T03:58:49;4.15;;;3.38;;
29168;SDS011;16219;42.864;23.360;2022-10-22T04:01:16;7.07;;;4.15;;
29168;SDS011;16219;42.864;23.360;2022-10-22T04:03:43;3.65;;;3.28;;
29168;SDS011;16219;42.864;23.360;2022-10-22T04:06:11;6.28;;;3.45;;
29168;SDS011;16219;42.864;23.360;2022-10-22T04:08:39;8.60;;;3.70;;
29168;SDS011;16219;42.864;23.360;2022-10-22T04:11:08;3.58;;;2.80;;
29168;SDS011;16219;42.864;23.360;2022-10-22T04:13:37;7.70;;;3.40;;
29168;SDS011;16219;42.864;23.360;2022-10-22T04:16:07;8.70;;;3.67;;
29168;SDS011;16219;42.864;23.360;2022-10-22T04:18:35;5.68;;;3.75;;
29168;SDS011;16219;42.864;23.360;2022-10-22T04:21:02;2.83;;;2.63;;
29168;SDS011;16219;42.864;23.360;2022-10-22T04:23:29;5.95;;;3.33;;
29168;SDS011;16219;42.864;23.360;2022-10-22T04:25:57;3.42;;;3.10;;
29168;SDS011;16219;42.864;23.360;2022-10-22T04:28:24;4.07;;;3.08;;
29168;SDS011;16219;42.864;23.360;2022-10-22T04:30:53;3.97;;;3.38;;
29168;SDS011;16219;42.864;23.360;2022-10-22T04:33:20;4.40;;;2.85;;
29168;SDS011;16219;42.864;23.360;2022-10-22T04:35:47;3.97;;;3.30;;
29168;SDS011;16219;42.864;23.360;2022-10-22T04:38:14;7.57;;;2.30;;
29168;SDS011;16219;42.864;23.360;2022-10-22T04:40:42;2.75;;;2.55;;
29168;SDS011;16219;42.864;23.360;2022-10-22T04:43:09;3.42;;;2.72;;
29168;SDS011;16219;42.864;23.360;2022-10-22T04:45:36;3.15;;;2.88;;
29168;SDS011;16219;42.864;23.360;2022-10-22T04:48:05;3.65;;;3.33;;
29168;SDS011;16219;42.864;23.360;2022-10-22T04:50:32;8.63;;;3.00;;
29168;SDS011;16219;42.864;23.360;2022-10-22T04:53:00;2.97;;;2.78;;
29168;SDS011;16219;42.864;23.360;2022-10-22T04:55:27;3.67;;;3.35;;
29168;SDS011;16219;42.864;23.360;2022-10-22T04:57:54;4.75;;;2.60;;
29168;SDS011;16219;42.864;23.360;2022-10-22T05:00:21;3.58;;;2.67;;
29168;SDS011;16219;42.864;23.360;2022-10-22T05:02:48;4.55;;;3.13;;
29168;SDS011;16219;42.864;23.360;2022-10-22T05:05:17;7.20;;;2.97;;
29168;SDS011;16219;42.864;23.360;2022-10-22T05:07:44;6.97;;;3.45;;
29168;SDS011;16219;42.864;23.360;2022-10-22T05:10:11;5.97;;;3.85;;
29168;SDS011;16219;42.864;23.360;2022-10-22T05:12:38;13.70;;;7.38;;
29168;SDS011;16219;42.864;23.360;2022-10-22T05:15:06;8.68;;;6.65;;
29168;SDS011;16219;42.864;23.360;2022-10-22T05:17:34;6.63;;;4.80;;
29168;SDS011;16219;42.864;23.360;2022-10-22T05:20:03;5.90;;;5.25;;
29168;SDS011;16219;42.864;23.360;2022-10-22T05:22:33;8.38;;;6.80;;
29168;SDS011;16219;42.864;23.360;2022-10-22T05:25:00;8.00;;;6.30;;
29168;SDS011;16219;42.864;23.360;2022-10-22T05:27:27;10.55;;;6.13;;
29168;SDS011;16219;42.864;23.360;2022-10-22T05:29:54;5.47;;;4.78;;
29168;SDS011;16219;42.864;23.360;2022-10-22T05:32:22;10.13;;;6.18;;
29168;SDS011;16219;42.864;23.360;2022-10-22T05:34:49;6.68;;;4.57;;
29168;SDS011;16219;42.864;23.360;2022-10-22T05:37:16;8.57;;;6.38;;
29168;SDS011;16219;42.864;23.360;2022-10-22T05:39:44;6.45;;;5.15;;
29168;SDS011;16219;42.864;23.360;2022-10-22T05:42:11;7.18;;;4.45;;
29168;SDS011;16219;42.864;23.360;2022-10-22T05:44:38;4.28;;;3.88;;
29168;SDS011;16219;42.864;23.360;2022-10-22T05:47:05;4.43;;;3.70;;
29168;SDS011;16219;42.864;23.360;2022-10-22T05:49:34;6.85;;;4.47;;
29168;SDS011;16219;42.864;23.360;2022-10-22T05:52:01;3.47;;;3.17;;
29168;SDS011;16219;42.864;23.360;2022-10-22T05:54:28;7.25;;;4.60;;
29168;SDS011;16219;42.864;23.360;2022-10-22T05:56:56;8.02;;;4.22;;
29168;SDS011;16219;42.864;23.360;2022-10-22T05:59:26;9.85;;;5.78;;
29168;SDS011;16219;42.864;23.360;2022-10-22T06:01:53;8.45;;;5.47;;
29168;SDS011;16219;42.864;23.360;2022-10-22T06:04:20;6.50;;;4.30;;
29168;SDS011;16219;42.864;23.360;2022-10-22T06:06:47;12.52;;;5.78;;
29168;SDS011;16219;42.864;23.360;2022-10-22T06:09:17;6.60;;;4.97;;
29168;SDS011;16219;42.864;23.360;2022-10-22T06:11:48;5.70;;;4.70;;
29168;SDS011;16219;42.864;23.360;2022-10-22T06:14:17;6.13;;;5.05;;
29168;SDS011;16219;42.864;23.360;2022-10-22T06:16:45;3.95;;;3.55;;
29168;SDS011;16219;42.864;23.360;2022-10-22T06:19:13;6.43;;;3.63;;
29168;SDS011;16219;42.864;23.360;2022-10-22T06:21:41;5.25;;;3.85;;
29168;SDS011;16219;42.864;23.360;2022-10-22T06:24:09;5.05;;;3.75;;
29168;SDS011;16219;42.864;23.360;2022-10-22T06:26:37;10.02;;;4.82;;
29168;SDS011;16219;42.864;23.360;2022-10-22T06:29:05;4.68;;;3.75;;
29168;SDS011;16219;42.864;23.360;2022-10-22T06:31:34;4.50;;;3.67;;
29168;SDS011;16219;42.864;23.360;2022-10-22T06:34:02;3.25;;;3.00;;
29168;SDS011;16219;42.864;23.360;2022-10-22T06:36:29;3.60;;;2.67;;
29168;SDS011;16219;42.864;23.360;2022-10-22T06:38:56;2.45;;;2.25;;
29168;SDS011;16219;42.864;23.360;2022-10-22T06:41:23;4.63;;;3.58;;
29168;SDS011;16219;42.864;23.360;2022-10-22T06:43:52;4.13;;;2.83;;
29168;SDS011;16219;42.864;23.360;2022-10-22T06:46:20;3.72;;;3.38;;
29168;SDS011;16219;42.864;23.360;2022-10-22T06:48:50;3.58;;;3.28;;
29168;SDS011;16219;42.864;23.360;2022-10-22T06:51:18;9.05;;;4.18;;
29168;SDS011;16219;42.864;23.360;2022-10-22T06:53:46;3.90;;;3.40;;
29168;SDS011;16219;42.864;23.360;2022-10-22T06:56:14;4.07;;;3.67;;
29168;SDS011;16219;42.864;23.360;2022-10-22T06:58:45;4.53;;;4.13;;
29168;SDS011;16219;42.864;23.360;2022-10-22T07:01:14;6.30;;;3.72;;
29168;SDS011;16219;42.864;23.360;2022-10-22T07:03:42;3.03;;;2.70;;
29168;SDS011;16219;42.864;23.360;2022-10-22T07:06:12;3.58;;;3.22;;
29168;SDS011;16219;42.864;23.360;2022-10-22T07:08:40;6.22;;;4.50;;
29168;SDS011;16219;42.864;23.360;2022-10-22T07:11:09;4.53;;;3.30;;
29168;SDS011;16219;42.864;23.360;2022-10-22T07:13:38;4.10;;;3.58;;
29168;SDS011;16219;42.864;23.360;2022-10-22T07:16:05;6.03;;;4.50;;
29168;SDS011;16219;42.864;23.360;2022-10-22T07:18:34;5.07;;;3.17;;
29168;SDS011;16219;42.864;23.360;2022-10-22T07:21:02;3.60;;;3.25;;
29168;SDS011;16219;42.864;23.360;2022-10-22T07:23:31;4.13;;;3.50;;
29168;SDS011;16219;42.864;23.360;2022-10-22T07:25:58;8.57;;;3.13;;
29168;SDS011;16219;42.864;23.360;2022-10-22T07:28:26;3.90;;;3.00;;
29168;SDS011;16219;42.864;23.360;2022-10-22T07:30:53;3.00;;;2.65;;
29168;SDS011;16219;42.864;23.360;2022-10-22T07:33:21;2.53;;;2.33;;
29168;SDS011;16219;42.864;23.360;2022-10-22T07:35:48;5.15;;;3.40;;
29168;SDS011;16219;42.864;23.360;2022-10-22T07:38:15;3.17;;;2.88;;
29168;SDS011;16219;42.864;23.360;2022-10-22T07:40:43;2.47;;;2.25;;
29168;SDS011;16219;42.864;23.360;2022-10-22T07:43:10;4.25;;;2.20;;
29168;SDS011;16219;42.864;23.360;2022-10-22T07:45:38;3.33;;;2.67;;
29168;SDS011;16219;42.864;23.360;2022-10-22T07:48:06;2.97;;;2.72;;
29168;SDS011;16219;42.864;23.360;2022-10-22T07:50:33;7.30;;;2.70;;
29168;SDS011;16219;42.864;23.360;2022-10-22T07:53:00;7.32;;;2.05;;
29168;SDS011;16219;42.864;23.360;2022-10-22T07:55:27;2.97;;;2.28;;
29168;SDS011;16219;42.864;23.360;2022-10-22T07:57:56;4.50;;;2.55;;
29168;SDS011;16219;42.864;23.360;2022-10-22T08:00:23;2.50;;;2.30;;
29168;SDS011;16219;42.864;23.360;2022-10-22T08:02:50;3.10;;;2.88;;
29168;SDS011;16219;42.864;23.360;2022-10-22T08:05:17;5.95;;;3.75;;
29168;SDS011;16219;42.864;23.360;2022-10-22T08:07:44;9.23;;;4.07;;
29168;SDS011;16219;42.864;23.360;2022-10-22T08:10:12;3.03;;;2.78;;
29168;SDS011;16219;42.864;23.360;2022-10-22T08:12:39;2.38;;;2.17;;
29168;SDS011;16219;42.864;23.360;2022-10-22T08:15:09;5.75;;;2.47;;
29168;SDS011;16219;42.864;23.360;2022-10-22T08:17:36;7.80;;;3.85;;
29168;SDS011;16219;42.864;23.360;2022-10-22T08:20:03;4.43;;;3.80;;
29168;SDS011;16219;42.864;23.360;2022-10-22T08:22:31;4.72;;;2.85;;
29168;SDS011;16219;42.864;23.360;2022-10-22T08:24:58;4.40;;;3.00;;
29168;SDS011;16219;42.864;23.360;2022-10-22T08:27:25;3.28;;;2.65;;
29168;SDS011;16219;42.864;23.360;2022-10-22T08:29:52;5.82;;;4.10;;
29168;SDS011;16219;42.864;23.360;2022-10-22T08:32:21;7.90;;;4.25;;
29168;SDS011;16219;42.864;23.360;2022-10-22T08:34:48;3.25;;;3.00;;
29168;SDS011;16219;42.864;23.360;2022-10-22T08:37:15;7.10;;;4.18;;
29168;SDS011;16219;42.864;23.360;2022-10-22T08:39:42;5.22;;;4.13;;
29168;SDS011;16219;42.864;23.360;2022-10-22T08:42:17;9.50;;;4.35;;
29168;SDS011;16219;42.864;23.360;2022-10-22T08:45:02;3.00;;;2.55;;
29168;SDS011;16219;42.864;23.360;2022-10-22T08:47:50;8.20;;;4.05;;
29168;SDS011;16219;42.864;23.360;2022-10-22T08:50:29;7.47;;;4.35;;
29168;SDS011;16219;42.864;23.360;2022-10-22T08:53:02;6.63;;;3.85;;
29168;SDS011;16219;42.864;23.360;2022-10-22T08:55:32;4.35;;;3.08;;
29168;SDS011;16219;42.864;23.360;2022-10-22T08:58:02;7.97;;;2.92;;
29168;SDS011;16219;42.864;23.360;2022-10-22T09:00:41;4.18;;;3.10;;
29168;SDS011;16219;42.864;23.360;2022-10-22T09:03:22;2.75;;;2.55;;
29168;SDS011;16219;42.864;23.360;2022-10-22T09:05:59;4.20;;;2.67;;
29168;SDS011;16219;42.864;23.360;2022-10-22T09:08:34;8.90;;;2.15;;
29168;SDS011;16219;42.864;23.360;2022-10-22T09:11:05;4.38;;;2.85;;
29168;SDS011;16219;42.864;23.360;2022-10-22T09:13:39;3.63;;;3.33;;
29168;SDS011;16219;42.864;23.360;2022-10-22T09:16:12;4.15;;;3.38;;
29168;SDS011;16219;42.864;23.360;2022-10-22T09:18:44;6.20;;;3.88;;
29168;SDS011;16219;42.864;23.360;2022-10-22T09:21:20;6.07;;;4.32;;
29168;SDS011;16219;42.864;23.360;2022-10-22T09:23:56;5.18;;;3.10;;
29168;SDS011;16219;42.864;23.360;2022-10-22T09:26:29;3.42;;;3.10;;
29168;SDS011;16219;42.864;23.360;2022-10-22T09:28:58;3.60;;;3.08;;
29168;SDS011;16219;42.864;23.360;2022-10-22T09:31:27;5.03;;;3.67;;
29168;SDS011;16219;42.864;23.360;2022-10-22T09:33:58;3.20;;;2.70;;
29168;SDS011;16219;42.864;23.360;2022-10-22T09:36:30;5.10;;;3.50;;
29168;SDS011;16219;42.864;23.360;2022-10-22T09:38:58;2.60;;;2.40;;
29168;SDS011;16219;42.864;23.360;2022-10-22T09:41:26;2.97;;;2.67;;
29168;SDS011;16219;42.864;23.360;2022-10-22T09:43:55;8.45;;;2.58;;
29168;SDS011;16219;42.864;23.360;2022-10-22T09:46:24;3.95;;;3.55;;
29168;SDS011;16219;42.864;23.360;2022-10-22T09:48:59;3.95;;;3.28;;
29168;SDS011;16219;42.864;23.360;2022-10-22T09:51:36;4.03;;;3.25;;
29168;SDS011;16219;42.864;23.360;2022-10-22T09:54:13;10.33;;;3.90;;
29168;SDS011;16219;42.864;23.360;2022-10-22T09:56:46;3.22;;;2.95;;
29168;SDS011;16219;42.864;23.360;2022-10-22T09:59:24;4.20;;;2.75;;
29168;SDS011;16219;42.864;23.360;2022-10-22T10:01:58;4.03;;;2.63;;
29168;SDS011;16219;42.864;23.360;2022-10-22T10:04:34;3.25;;;2.88;;
29168;SDS011;16219;42.864;23.360;2022-10-22T10:07:13;4.55;;;3.28;;
29168;SDS011;16219;42.864;23.360;2022-10-22T10:09:42;2.72;;;2.53;;
29168;SDS011;16219;42.864;23.360;2022-10-22T10:12:12;5.43;;;2.65;;
29168;SDS011;16219;42.864;23.360;2022-10-22T10:14:50;3.22;;;2.28;;
29168;SDS011;16219;42.864;23.360;2022-10-22T10:17:24;3.10;;;2.85;;
29168;SDS011;16219;42.864;23.360;2022-10-22T10:20:02;2.25;;;2.10;;
29168;SDS011;16219;42.864;23.360;2022-10-22T10:22:45;5.18;;;3.38;;
29168;SDS011;16219;42.864;23.360;2022-10-22T10:25:40;2.60;;;2.40;;
29168;SDS011;16219;42.864;23.360;2022-10-22T10:28:26;3.17;;;1.52;;
29168;SDS011;16219;42.864;23.360;2022-10-22T10:31:03;8.68;;;3.10;;
29168;SDS011;16219;42.864;23.360;2022-10-22T10:33:42;2.30;;;2.00;;
29168;SDS011;16219;42.864;23.360;2022-10-22T10:36:21;4.53;;;2.35;;
29168;SDS011;16219;42.864;23.360;2022-10-22T10:38:59;3.17;;;2.33;;
29168;SDS011;16219;42.864;23.360;2022-10-22T10:41:35;3.13;;;2.17;;
29168;SDS011;16219;42.864;23.360;2022-10-22T10:47:37;2.35;;;2.03;;
29168;SDS011;16219;42.864;23.360;2022-10-22T10:50:23;5.35;;;2.60;;
29168;SDS011;16219;42.864;23.360;2022-10-22T10:52:59;5.53;;;3.30;;
29168;SDS011;16219;42.864;23.360;2022-10-22T10:55:37;2.33;;;2.13;;
29168;SDS011;16219;42.864;23.360;2022-10-22T10:58:23;4.10;;;3.40;;
29168;SDS011;16219;42.864;23.360;2022-10-22T11:01:02;2.50;;;1.58;;
29168;SDS011;16219;42.864;23.360;2022-10-22T11:03:44;2.67;;;2.47;;
29168;SDS011;16219;42.864;23.360;2022-10-22T11:06:28;2.35;;;2.25;;
29168;SDS011;16219;42.864;23.360;2022-10-22T11:09:00;4.72;;;2.30;;
29168;SDS011;16219;42.864;23.360;2022-10-22T11:11:33;7.93;;;2.55;;
29168;SDS011;16219;42.864;23.360;2022-10-22T11:16:38;3.20;;;2.38;;
29168;SDS011;16219;42.864;23.360;2022-10-22T11:19:14;2.38;;;2.17;;
29168;SDS011;16219;42.864;23.360;2022-10-22T11:21:48;2.23;;;2.07;;
29168;SDS011;16219;42.864;23.360;2022-10-22T11:24:24;3.08;;;2.28;;
29168;SDS011;16219;42.864;23.360;2022-10-22T11:26:55;2.75;;;2.55;;
29168;SDS011;16219;42.864;23.360;2022-10-22T11:29:29;5.25;;;2.58;;
29168;SDS011;16219;42.864;23.360;2022-10-22T11:32:01;1.38;;;1.27;;
29168;SDS011;16219;42.864;23.360;2022-10-22T11:34:30;2.75;;;2.55;;
29168;SDS011;16219;42.864;23.360;2022-10-22T11:37:04;1.80;;;1.70;;
29168;SDS011;16219;42.864;23.360;2022-10-22T11:39:39;5.20;;;2.47;;
29168;SDS011;16219;42.864;23.360;2022-10-22T11:42:10;3.08;;;2.13;;
29168;SDS011;16219;42.864;23.360;2022-10-22T11:44:45;1.80;;;1.70;;
29168;SDS011;16219;42.864;23.360;2022-10-22T11:47:16;5.07;;;2.20;;
29168;SDS011;16219;42.864;23.360;2022-10-22T11:49:45;5.78;;;2.30;;
29168;SDS011;16219;42.864;23.360;2022-10-22T11:52:24;1.70;;;1.60;;
29168;SDS011;16219;42.864;23.360;2022-10-22T11:55:10;2.08;;;1.88;;
29168;SDS011;16219;42.864;23.360;2022-10-22T11:57:56;4.63;;;2.47;;
29168;SDS011;16219;42.864;23.360;2022-10-22T12:00:33;5.88;;;2.20;;
29168;SDS011;16219;42.864;23.360;2022-10-22T12:03:14;5.53;;;2.45;;
29168;SDS011;16219;42.864;23.360;2022-10-22T12:05:43;3.58;;;2.03;;
29168;SDS011;16219;42.864;23.360;2022-10-22T12:08:20;3.17;;;2.88;;
29168;SDS011;16219;42.864;23.360;2022-10-22T12:11:03;2.30;;;2.10;;
29168;SDS011;16219;42.864;23.360;2022-10-22T12:13:55;2.25;;;2.05;;
29168;SDS011;16219;42.864;23.360;2022-10-22T12:16:38;3.25;;;2.92;;
29168;SDS011;16219;42.864;23.360;2022-10-22T12:19:11;2.80;;;2.05;;
29168;SDS011;16219;42.864;23.360;2022-10-22T12:21:41;2.47;;;2.28;;
29168;SDS011;16219;42.864;23.360;2022-10-22T12:24:11;5.97;;;2.33;;
29168;SDS011;16219;42.864;23.360;2022-10-22T12:26:42;11.63;;;6.28;;
29168;SDS011;16219;42.864;23.360;2022-10-22T12:29:11;2.38;;;2.17;;
29168;SDS011;16219;42.864;23.360;2022-10-22T12:31:40;13.38;;;5.00;;
29168;SDS011;16219;42.864;23.360;2022-10-22T12:34:12;3.35;;;2.67;;
29168;SDS011;16219;42.864;23.360;2022-10-22T12:36:40;1.85;;;1.48;;
29168;SDS011;16219;42.864;23.360;2022-10-22T12:39:10;2.95;;;1.92;;
29168;SDS011;16219;42.864;23.360;2022-10-22T12:41:39;4.95;;;3.10;;
29168;SDS011;16219;42.864;23.360;2022-10-22T12:44:10;9.40;;;4.60;;
29168;SDS011;16219;42.864;23.360;2022-10-22T12:46:39;3.45;;;2.45;;
29168;SDS011;16219;42.864;23.360;2022-10-22T12:49:10;3.38;;;2.45;;
29168;SDS011;16219;42.864;23.360;2022-10-22T12:51:44;3.95;;;2.55;;
29168;SDS011;16219;42.864;23.360;2022-10-22T12:54:21;1.80;;;1.63;;
29168;SDS011;16219;42.864;23.360;2022-10-22T12:56:55;6.95;;;2.30;;
29168;SDS011;16219;42.864;23.360;2022-10-22T12:59:24;7.22;;;2.55;;
29168;SDS011;16219;42.864;23.360;2022-10-22T13:01:53;2.88;;;1.92;;
29168;SDS011;16219;42.864;23.360;2022-10-22T13:04:30;3.70;;;2.10;;
29168;SDS011;16219;42.864;23.360;2022-10-22T13:07:12;3.50;;;1.77;;
29168;SDS011;16219;42.864;23.360;2022-10-22T13:09:46;7.07;;;3.85;;
29168;SDS011;16219;42.864;23.360;2022-10-22T13:12:24;2.90;;;2.05;;
29168;SDS011;16219;42.864;23.360;2022-10-22T13:14:53;5.75;;;4.13;;
29168;SDS011;16219;42.864;23.360;2022-10-22T13:17:35;2.70;;;2.15;;
29168;SDS011;16219;42.864;23.360;2022-10-22T13:20:12;11.63;;;3.72;;
29168;SDS011;16219;42.864;23.360;2022-10-22T13:22:51;9.05;;;2.42;;
29168;SDS011;16219;42.864;23.360;2022-10-22T13:25:21;2.90;;;2.60;;
29168;SDS011;16219;42.864;23.360;2022-10-22T13:27:52;2.63;;;2.20;;
29168;SDS011;16219;42.864;23.360;2022-10-22T13:30:23;4.18;;;3.05;;
29168;SDS011;16219;42.864;23.360;2022-10-22T13:32:53;3.85;;;2.15;;
29168;SDS011;16219;42.864;23.360;2022-10-22T13:35:23;4.68;;;2.97;;
29168;SDS011;16219;42.864;23.360;2022-10-22T13:37:53;10.20;;;7.43;;
29168;SDS011;16219;42.864;23.360;2022-10-22T13:40:21;11.48;;;7.32;;
29168;SDS011;16219;42.864;23.360;2022-10-22T13:42:48;6.03;;;3.03;;
29168;SDS011;16219;42.864;23.360;2022-10-22T13:45:16;27.13;;;13.27;;
29168;SDS011;16219;42.864;23.360;2022-10-22T13:47:46;45.13;;;25.85;;
29168;SDS011;16219;42.864;23.360;2022-10-22T13:50:17;21.95;;;12.40;;
29168;SDS011;16219;42.864;23.360;2022-10-22T13:52:46;20.65;;;6.53;;
29168;SDS011;16219;42.864;23.360;2022-10-22T13:55:17;3.35;;;2.88;;
29168;SDS011;16219;42.864;23.360;2022-10-22T13:57:46;3.67;;;2.85;;
29168;SDS011;16219;42.864;23.360;2022-10-22T14:00:14;6.63;;;4.75;;
29168;SDS011;16219;42.864;23.360;2022-10-22T14:02:47;12.27;;;7.22;;
29168;SDS011;16219;42.864;23.360;2022-10-22T14:05:18;5.90;;;3.22;;
29168;SDS011;16219;42.864;23.360;2022-10-22T14:07:46;4.72;;;4.07;;
29168;SDS011;16219;42.864;23.360;2022-10-22T14:10:17;9.27;;;3.42;;
29168;SDS011;16219;42.864;23.360;2022-10-22T14:12:46;1.92;;;1.83;;
29168;SDS011;16219;42.864;23.360;2022-10-22T14:15:14;10.40;;;5.35;;
29168;SDS011;16219;42.864;23.360;2022-10-22T14:17:44;9.82;;;4.45;;
29168;SDS011;16219;42.864;23.360;2022-10-22T14:20:15;4.57;;;2.03;;
29168;SDS011;16219;42.864;23.360;2022-10-22T14:22:46;3.20;;;2.45;;
29168;SDS011;16219;42.864;23.360;2022-10-22T14:25:14;3.17;;;2.88;;
29168;SDS011;16219;42.864;23.360;2022-10-22T14:27:43;4.75;;;3.20;;
29168;SDS011;16219;42.864;23.360;2022-10-22T14:30:12;5.75;;;3.42;;
29168;SDS011;16219;42.864;23.360;2022-10-22T14:32:40;5.43;;;2.75;;
29168;SDS011;16219;42.864;23.360;2022-10-22T14:35:11;3.20;;;2.38;;
29168;SDS011;16219;42.864;23.360;2022-10-22T14:37:39;2.08;;;1.98;;
29168;SDS011;16219;42.864;23.360;2022-10-22T14:40:07;2.78;;;2.50;;
29168;SDS011;16219;42.864;23.360;2022-10-22T14:42:38;4.03;;;2.70;;
29168;SDS011;16219;42.864;23.360;2022-10-22T14:45:09;3.53;;;2.10;;
29168;SDS011;16219;42.864;23.360;2022-10-22T14:47:41;3.25;;;2.45;;
29168;SDS011;16219;42.864;23.360;2022-10-22T14:50:08;2.97;;;2.40;;
29168;SDS011;16219;42.864;23.360;2022-10-22T14:52:38;1.90;;;1.80;;
29168;SDS011;16219;42.864;23.360;2022-10-22T14:55:07;4.10;;;2.35;;
29168;SDS011;16219;42.864;23.360;2022-10-22T14:57:35;2.97;;;2.67;;
29168;SDS011;16219;42.864;23.360;2022-10-22T15:00:03;12.32;;;5.95;;
29168;SDS011;16219;42.864;23.360;2022-10-22T15:02:32;9.38;;;6.13;;